Flight Track Log - Related Links

Times and Time Zones

All times are in EDT time to prevent confusion due to time zone crossing. See the AAY883 flight status page for this flight to view local times or setup timezone preferences in your user account.

Time Position Orientation Groundspeed Altitude Reporting Facility
EDT Latitude Longitude Course Direction KTS MPH feet Rate Location/Type
Fri 06:35:33 PM 42.8494 -85.5861 173° South 217 250 2,900  Level Chicago Center
Fri 06:36:35 PM 42.7761 -85.5747 173° South 263 303 5,500 2,758 Climbing Chicago Center
Fri 06:37:37 PM 42.6961 -85.5578 171° South 284 327 8,600 2,661 Climbing Chicago Center
Fri 06:38:39 PM 42.6089 -85.5369 170° South 308 354 11,000 2,323 Climbing Chicago Center
Fri 06:39:41 PM 42.5092 -85.5169 172° South 357 411 13,400 2,592 Climbing Chicago Center
Fri 06:40:00 PM 42.1827 -85.3630 173° South  Level Estimated
Fri 06:40:44 PM 42.3839 -85.4889 171° South 378 435 16,400  Level Chicago Center
Fri 06:41:46 PM 42.2772 -85.4661 171° South 386 444 18,900 2,226 Climbing Chicago Center
Fri 06:42:48 PM 42.1661 -85.4419 171° South 400 460 21,000 2,032 Climbing Chicago Center
Fri 06:43:50 PM 42.0525 -85.4175 171° South 411 473 23,100 2,081 Climbing Chicago Center
Fri 06:44:52 PM 41.9244 -85.3897 171° South 417 480 25,300 1,694 Climbing Chicago Center
Fri 06:45:54 PM 41.8053 -85.3642 171° South 429 494 26,600 1,452 Climbing Chicago Center
Fri 06:46:56 PM 41.6739 -85.3356 171° South 436 502 28,300 1,330 Climbing Chicago Center
Fri 06:52:13 PM 41.0237 -85.1777 176° South 448 516 35,000 1,180 Climbing FlightAware
Fri 06:53:48 PM 40.8320 -85.1599 176° South 451 519 36,400 789 Climbing FlightAware
Fri 06:54:45 PM 40.6952 -85.1467 176° South 453 521 37,000 350 Climbing FlightAware
Fri 06:55:31 PM 40.5992 -85.1379 176° South 458 527 37,000  Level FlightAware
Fri 06:56:31 PM 40.4725 -85.1264 176° South 461 531 37,000  Level FlightAware
Fri 06:57:02 PM 40.4147 -85.1211 176° South 461 531 37,000  Level FlightAware
Fri 06:57:32 PM 40.3601 -85.1161 176° South 461 531 37,000  Level FlightAware
Fri 06:58:15 PM 40.2500 -85.1059 176° South 460 529 37,000  Level FlightAware
Fri 06:58:47 PM 40.1842 -85.1003 176° South 460 529 37,000  Level FlightAware
Fri 06:59:17 PM 40.1186 -85.0947 176° South 460 529 37,000  Level FlightAware
Fri 06:59:48 PM 40.0576 -85.0895 176° South 460 529 37,000  Level FlightAware
Fri 07:00:31 PM 39.9664 -85.0819 176° South 460 529 37,000  Level FlightAware
Fri 07:01:31 PM 39.8343 -85.0706 176° South 461 531 37,000  Level FlightAware
Fri 07:02:32 PM 39.7038 -85.0596 176° South 461 531 37,000  Level FlightAware
Fri 07:05:00 PM 39.4464 -85.0381 176° South 458 527 37,000  Level FlightAware (KCVG)
Fri 07:06:52 PM 39.1534 -85.0138 176° South 458 527 37,000  Level FlightAware (KCVG)
Fri 07:07:41 PM 39.0501 -85.0052 176° South 454 522 37,000  Level FlightAware (KCVG)
Fri 07:08:23 PM 39.0991 -85.0094 176° South 449 517 37,000  Level FlightAware
Fri 07:09:08 PM 39.0125 -85.0020 176° South 448 516 37,000  Level FlightAware
Fri 07:09:59 PM 38.8506 -84.9887 176° South 448 516 37,000  Level FlightAware
Fri 07:10:45 PM 38.6684 -84.9739 176° South 455 524 37,000  Level FlightAware (KCVG)
Fri 07:11:16 PM 38.6074 -84.9689 177° South 454 522 37,000  Level FlightAware (KCVG)
Fri 07:11:57 PM 38.5176 -84.9615 176° South 453 521 37,000  Level FlightAware (KCVG)
Fri 07:12:29 PM 38.4492 -84.9560 176° South 452 520 37,000  Level FlightAware (KCVG)
Fri 07:13:05 PM 38.3799 -84.9505 176° South 451 519 37,000  Level FlightAware (KCVG)
Fri 07:13:46 PM 38.2895 -84.9433 176° South 451 519 37,000  Level FlightAware (KCVG)
Fri 07:14:19 PM 38.2206 -84.9376 176° South 451 519 37,000  Level FlightAware (KCVG)
Fri 07:15:07 PM 38.1234 -84.9297 176° South 451 519 37,000  Level FlightAware (KCVG)
Fri 07:15:48 PM 38.0469 -84.9236 176° South 451 519 37,000  Level FlightAware (KCVG)
Fri 07:17:02 PM 37.8849 -84.9105 176° South 451 519 37,000  Level FlightAware (KCVG)
Fri 07:19:22 PM 37.5889 -84.8868 176° South 452 520 37,000  Level FlightAware (EPWR / WRO)
Fri 07:20:00 PM 37.5140 -84.8809 177° South 454 522 37,000  Level FlightAware (EPWR / WRO)
Fri 07:20:45 PM 37.4151 -84.8730 176° South 459 528 37,000  Level FlightAware (EPWR / WRO)
Fri 07:21:38 PM 37.3563 -84.8684 177° South 462 532 37,000  Level FlightAware (EPWR / WRO)
Fri 07:24:07 PM 36.9819 -84.8389 177° South 468 539 37,000  Level FlightAware (EPWR / WRO)
Fri 07:24:54 PM 36.8961 -84.8322 177° South 463 533 37,000  Level Indianapolis Center
Fri 07:25:57 PM 36.7675 -84.8214 176° South 464 534 37,000  Level Indianapolis Center
Fri 07:26:59 PM 36.6389 -84.8128 177° South 464 534 37,000  Level Indianapolis Center
Fri 07:28:01 PM 36.4842 -84.7992 176° South 462 532 37,000  Level Indianapolis Center
Fri 07:29:03 PM 36.3544 -84.7894 177° South 463 533 37,000  Level Indianapolis Center
Fri 07:30:05 PM 36.2247 -84.7800 177° South 463 533 37,000  Level Indianapolis Center
Fri 07:31:07 PM 36.0933 -84.7700 176° South 467 537 37,000  Level Indianapolis Center
Fri 07:36:14 PM 35.4088 -84.7187 177° South 453 521 37,000  Level FlightAware (KMDQ)
Fri 07:36:49 PM 35.2480 -84.7067 176° South 449 517 37,000  Level FlightAware (KDZJ)
Fri 07:37:30 PM 35.1604 -84.7001 177° South 453 521 37,000  Level FlightAware (KDZJ)
Fri 07:38:12 PM 35.0741 -84.6936 176° South 452 520 37,000  Level FlightAware (KDZJ)
Fri 07:38:52 PM 34.9899 -84.6873 177° South 452 520 37,000  Level FlightAware (KDZJ)
Fri 07:39:33 PM 34.9045 -84.6810 177° South 454 522 37,000  Level FlightAware (KDZJ)
Fri 07:40:12 PM 34.8218 -84.6749 177° South 448 516 37,000  Level FlightAware (KDZJ)
Fri 07:40:53 PM 34.7356 -84.6684 176° South 450 518 37,000  Level FlightAware (KDZJ)
Fri 07:41:33 PM 34.6514 -84.6621 177° South 451 519 37,000  Level FlightAware (KDZJ)
Fri 07:42:13 PM 34.5663 -84.6560 177° South 452 520 37,000  Level FlightAware (KDZJ)
Fri 07:42:53 PM 34.4814 -84.6499 177° South 452 520 37,000  Level FlightAware (KDZJ)
Fri 07:43:33 PM 34.3960 -84.6435 176° South 451 519 37,000 76 Level FlightAware (KDZJ)
Fri 07:44:12 PM 34.3141 -84.6374 177° South 455 524 37,100  Climbing FlightAware (KDZJ)
Fri 07:44:53 PM 34.2270 -84.6310 177° South 452 520 37,000 -74 Descending FlightAware (KDZJ)
Fri 07:45:33 PM 34.1449 -84.6250 177° South 449 517 37,000  Level FlightAware (KDZJ)
Fri 07:46:12 PM 34.0624 -84.6190 177° South 439 505 37,000  Level FlightAware (KDZJ)
Fri 07:46:53 PM 33.9790 -84.6130 177° South 437 503 37,000  Level FlightAware (KDZJ)
Fri 07:47:37 PM 33.8878 -84.6064 177° South 435 501 37,000  Level FlightAware (KDZJ)
Fri 07:48:41 PM 33.8639 -84.6017 177° South 455 524 37,000  Level Atlanta Center
Fri 07:49:41 PM 33.7408 -84.5958 178° South 450 518 37,000  Level Atlanta Center
Fri 07:50:41 PM 33.6178 -84.5925 179° South 450 518 37,000  Level Atlanta Center
Fri 07:51:41 PM 33.4778 -84.5817 176° South 450 518 37,000  Level Atlanta Center
Fri 07:52:41 PM 33.3528 -84.5736 177° South 455 524 37,000  Level Atlanta Center
Fri 07:53:41 PM 33.2422 -84.5653 176° South 455 524 37,000  Level Atlanta Center
Fri 07:54:41 PM 33.1147 -84.5547 176° South 460 529 37,000  Level Atlanta Center
Fri 07:56:41 PM 32.8603 -84.5039 170° South 465 535 37,000  Level Atlanta Center
Fri 07:57:41 PM 32.7247 -84.4708 168° South 464 534 37,000  Level Atlanta Center
Fri 07:58:41 PM 32.5975 -84.4456 170° South 464 534 37,000  Level Atlanta Center
Fri 07:59:41 PM 32.4703 -84.4181 170° South 464 534 37,000  Level Atlanta Center
Fri 08:00:41 PM 32.3408 -84.3928 171° South 469 540 37,000 50 Level Atlanta Center
Fri 08:01:41 PM 32.2117 -84.3653 170° South 469 540 37,100  Climbing Atlanta Center
Fri 08:02:58 PM 32.0622 -84.3342 170° South 467 537 37,000 -44 Descending Jacksonville Center
Fri 08:03:58 PM 31.9372 -84.3100 171° South 467 537 37,000  Level Jacksonville Center
Fri 08:04:59 PM 31.8103 -84.2836 170° South 467 537 37,000  Level Jacksonville Center
Fri 08:05:59 PM 31.6872 -84.2597 171° South 462 532 37,000  Level Jacksonville Center
Fri 08:12:32 PM 30.8484 -84.0442 164° South 476 548 37,000  Level FlightAware
Fri 08:13:05 PM 30.7883 -84.0242 164° South 474 545 37,000  Level FlightAware
Fri 08:13:38 PM 30.7093 -83.9977 164° South 476 548 37,000  Level FlightAware
Fri 08:14:08 PM 30.6455 -83.9764 164° South 479 551 37,000  Level FlightAware
Fri 08:14:45 PM 30.5647 -83.9497 164° South 479 551 37,000  Level FlightAware (KONZ)
Fri 08:15:18 PM 30.5171 -83.9340 164° South 480 552 37,000  Level FlightAware
Fri 08:15:49 PM 30.4353 -83.9070 164° South 477 549 37,000  Level FlightAware
Fri 08:16:28 PM 30.3510 -83.8791 164° South 474 545 37,000  Level FlightAware
Fri 08:17:05 PM 30.2814 -83.8560 164° South 478 550 37,000  Level FlightAware
Fri 08:17:48 PM 30.1752 -83.8212 164° South 480 552 37,000  Level FlightAware
Fri 08:18:18 PM 30.1105 -83.7999 164° South 480 552 37,000  Level FlightAware (KONZ)
Fri 08:18:58 PM 30.0442 -83.7803 164° South 470 541 37,000  Level Jacksonville Center
Fri 08:19:59 PM 29.9150 -83.7361 163° South 475 547 37,000 -248 Level Jacksonville Center
Fri 08:20:59 PM 29.7858 -83.6967 165° South 475 547 36,500 -1,563 Descending Jacksonville Center
Fri 08:21:58 PM 29.6631 -83.6575 165° South 469 540 33,900 -3,176 Descending Jacksonville Center
Fri 08:22:58 PM 29.5317 -83.6133 164° South 474 545 30,200 -3,250 Descending Jacksonville Center
Fri 08:23:58 PM 29.4044 -83.5719 164° South 474 545 27,400 -2,400 Descending Jacksonville Center
Fri 08:24:58 PM 29.2753 -83.5281 163° South 474 545 25,400 -1,934 Descending Jacksonville Center
Fri 08:25:59 PM 29.1567 -83.4703 157° South 469 540 23,500 -1,700 Descending Jacksonville Center
Fri 08:26:58 PM 29.0442 -83.3983 151° Southeast 464 534 22,000 -1,250 Descending Jacksonville Center
Fri 08:27:59 PM 28.9339 -83.3267 150° Southeast 458 527 21,000 -1,240 Descending Jacksonville Center
Fri 08:28:59 PM 28.8256 -83.2575 151° Southeast 453 521 19,500 -1,950 Descending Jacksonville Center
Fri 08:29:59 PM 28.7214 -83.1933 152° Southeast 439 505 17,100 -2,400 Descending Jacksonville Center
Fri 08:30:59 PM 28.6214 -83.1292 151° Southeast 426 490 14,700 -1,673 Descending Jacksonville Center
Fri 08:32:26 PM 28.4667 -83.0333 151° Southeast 399 459 13,000 -1,265 Descending Tampa TRACON
Fri 08:33:26 PM 28.3667 -82.9667 150° Southeast 378 435 11,600 -1,200 Descending Tampa TRACON
Fri 08:34:26 PM 28.2833 -82.9167 152° Southeast 341 392 10,600 -750 Descending Tampa TRACON
Fri 08:35:26 PM 28.2167 -82.8667 147° Southeast 312 359 10,100 -1,150 Descending Tampa TRACON
Fri 08:36:26 PM 28.1333 -82.8333 161° South 300 345 8,300 -1,800 Descending Tampa TRACON
Fri 08:37:26 PM 28.0500 -82.8000 161° South 298 343 6,500 -1,850 Descending Tampa TRACON
Fri 08:38:26 PM 27.9833 -82.7667 156° South 273 314 4,600 -1,850 Descending Tampa TRACON
Fri 08:39:26 PM 27.9167 -82.7500 168° South 256 295 2,800 -1,100 Descending Tampa TRACON
Fri 08:40:26 PM 27.8500 -82.7500 180° South 211 243 2,400 -650 Descending Tampa TRACON
Fri 08:41:26 PM 27.8333 -82.7000 111° Southeast 172 198 1,500 -750 Descending Tampa TRACON
Fri 08:42:26 PM 27.8500 -82.6833 41° Northeast 130 150 900 -600 Descending Tampa TRACON

Login

Don't have an account? Register now (free) for customized features, flight alerts, and more!